Terminal Aerodrome Forecast
Issued by NWS

Home | Current Version | Previous Version | Text Only | Print | Product List | Glossary On
Versions: 1 2 3 4 5 6 7 8 9 10 11 12 13 14 15 16 17 18 19 20 21 22 23 24 25 26 27
000
FTUS42 KCAE 190600 AAA
TAFCUB
TAF AMD
KCUB 190659Z 1907/2006 03008KT 3SM RA BR BKN007 OVC015
     FM191600 04012G17KT 5SM -RA BR BKN007 OVC015
     FM192200 03011G16KT 6SM -RA BR OVC007=

USA.gov is the U.S. government's official web portal to all federal, state and local government web resources and services.